sensor_id;sensor_type;location;lat;lon;timestamp;pressure;altitude;pressure_sealevel;temperature;humidity
33432;BME280;35187;31.882;34.828;2023-05-19T00:02:20;100600;;;21;44
33432;BME280;35187;31.882;34.828;2023-05-19T00:05:04;100600;;;20;44
33432;BME280;35187;31.882;34.828;2023-05-19T00:07:38;100600;;;21;44
33432;BME280;35187;31.882;34.828;2023-05-19T00:10:23;100600;;;20;44
33432;BME280;35187;31.882;34.828;2023-05-19T00:13:13;100600;;;21;44
33432;BME280;35187;31.882;34.828;2023-05-19T00:15:56;100600;;;20;44
33432;BME280;35187;31.882;34.828;2023-05-19T00:18:32;100600;;;21;44
33432;BME280;35187;31.882;34.828;2023-05-19T00:21:02;100590;;;21;44
33432;BME280;35187;31.882;34.828;2023-05-19T00:23:39;100590;;;21;44
33432;BME280;35187;31.882;34.828;2023-05-19T00:26:08;100590;;;20;44
33432;BME280;35187;31.882;34.828;2023-05-19T00:28:38;100590;;;20;44
33432;BME280;35187;31.882;34.828;2023-05-19T00:31:45;100600;;;20;44
33432;BME280;35187;31.882;34.828;2023-05-19T00:34:36;100600;;;20;44
33432;BME280;35187;31.882;34.828;2023-05-19T00:37:05;100590;;;20;44
33432;BME280;35187;31.882;34.828;2023-05-19T00:39:36;100590;;;20;44
33432;BME280;35187;31.882;34.828;2023-05-19T00:42:26;100580;;;20;44
33432;BME280;35187;31.882;34.828;2023-05-19T00:45:10;100580;;;21;44
33432;BME280;35187;31.882;34.828;2023-05-19T00:47:46;100580;;;21;44
33432;BME280;35187;31.882;34.828;2023-05-19T00:50:19;100590;;;20;44
33432;BME280;35187;31.882;34.828;2023-05-19T00:52:50;100590;;;20;44
33432;BME280;35187;31.882;34.828;2023-05-19T00:55:22;100590;;;20;44
33432;BME280;35187;31.882;34.828;2023-05-19T00:58:30;100580;;;20;44
33432;BME280;35187;31.882;34.828;2023-05-19T01:01:11;100580;;;20;44
33432;BME280;35187;31.882;34.828;2023-05-19T01:03:42;100580;;;20;44
33432;BME280;35187;31.882;34.828;2023-05-19T01:06:12;100580;;;20;44
33432;BME280;35187;31.882;34.828;2023-05-19T01:08:43;100580;;;20;44
33432;BME280;35187;31.882;34.828;2023-05-19T01:11:23;100570;;;20;44
33432;BME280;35187;31.882;34.828;2023-05-19T01:13:55;100570;;;20;44
33432;BME280;35187;31.882;34.828;2023-05-19T01:16:30;100570;;;20;44
33432;BME280;35187;31.882;34.828;2023-05-19T01:19:13;100570;;;20;44
33432;BME280;35187;31.882;34.828;2023-05-19T01:22:37;100580;;;21;44
33432;BME280;35187;31.882;34.828;2023-05-19T01:25:35;100580;;;20;44
33432;BME280;35187;31.882;34.828;2023-05-19T01:28:31;100580;;;20;44
33432;BME280;35187;31.882;34.828;2023-05-19T01:31:13;100580;;;20;44
33432;BME280;35187;31.882;34.828;2023-05-19T01:33:44;100590;;;20;44
33432;BME280;35187;31.882;34.828;2023-05-19T01:36:14;100590;;;20;44
33432;BME280;35187;31.882;34.828;2023-05-19T01:38:49;100590;;;20;44
33432;BME280;35187;31.882;34.828;2023-05-19T01:41:21;100590;;;20;44
33432;BME280;35187;31.882;34.828;2023-05-19T01:43:53;100590;;;20;44
33432;BME280;35187;31.882;34.828;2023-05-19T01:46:24;100590;;;20;44
33432;BME280;35187;31.882;34.828;2023-05-19T01:49:00;100590;;;20;44
33432;BME280;35187;31.882;34.828;2023-05-19T01:51:30;100590;;;20;45
33432;BME280;35187;31.882;34.828;2023-05-19T01:54:01;100580;;;20;45
33432;BME280;35187;31.882;34.828;2023-05-19T01:56:41;100580;;;20;44
33432;BME280;35187;31.882;34.828;2023-05-19T01:59:32;100570;;;20;45
33432;BME280;35187;31.882;34.828;2023-05-19T02:02:16;100560;;;20;45
33432;BME280;35187;31.882;34.828;2023-05-19T02:04:56;100560;;;20;45
33432;BME280;35187;31.882;34.828;2023-05-19T02:07:54;100560;;;21;45
33432;BME280;35187;31.882;34.828;2023-05-19T02:10:28;100570;;;20;45
33432;BME280;35187;31.882;34.828;2023-05-19T02:13:00;100570;;;20;45
33432;BME280;35187;31.882;34.828;2023-05-19T02:15:39;100570;;;20;45
33432;BME280;35187;31.882;34.828;2023-05-19T02:18:14;100570;;;20;45
33432;BME280;35187;31.882;34.828;2023-05-19T02:20:45;100570;;;20;45
33432;BME280;35187;31.882;34.828;2023-05-19T02:23:23;100570;;;20;45
33432;BME280;35187;31.882;34.828;2023-05-19T02:25:52;100570;;;20;45
33432;BME280;35187;31.882;34.828;2023-05-19T02:28:22;100570;;;20;45
33432;BME280;35187;31.882;34.828;2023-05-19T02:30:51;100570;;;20;45
33432;BME280;35187;31.882;34.828;2023-05-19T02:33:21;100570;;;20;45
33432;BME280;35187;31.882;34.828;2023-05-19T02:35:58;100570;;;20;45
33432;BME280;35187;31.882;34.828;2023-05-19T02:38:33;100580;;;20;45
33432;BME280;35187;31.882;34.828;2023-05-19T02:41:03;100580;;;20;45
33432;BME280;35187;31.882;34.828;2023-05-19T02:43:39;100580;;;20;45
33432;BME280;35187;31.882;34.828;2023-05-19T02:46:09;100580;;;20;45
33432;BME280;35187;31.882;34.828;2023-05-19T02:48:38;100580;;;20;45
33432;BME280;35187;31.882;34.828;2023-05-19T02:51:08;100580;;;20;45
33432;BME280;35187;31.882;34.828;2023-05-19T02:53:38;100580;;;20;45
33432;BME280;35187;31.882;34.828;2023-05-19T02:56:12;100580;;;20;45
33432;BME280;35187;31.882;34.828;2023-05-19T02:58:47;100580;;;20;45
33432;BME280;35187;31.882;34.828;2023-05-19T03:01:25;100580;;;20;45
33432;BME280;35187;31.882;34.828;2023-05-19T03:03:54;100590;;;20;45
33432;BME280;35187;31.882;34.828;2023-05-19T03:06:27;100590;;;20;45
33432;BME280;35187;31.882;34.828;2023-05-19T03:09:04;100590;;;20;46
33432;BME280;35187;31.882;34.828;2023-05-19T03:11:35;100600;;;20;46
33432;BME280;35187;31.882;34.828;2023-05-19T03:14:05;100600;;;20;46
33432;BME280;35187;31.882;34.828;2023-05-19T03:16:44;100590;;;20;45
33432;BME280;35187;31.882;34.828;2023-05-19T03:19:15;100600;;;20;45
33432;BME280;35187;31.882;34.828;2023-05-19T03:21:45;100590;;;20;45
33432;BME280;35187;31.882;34.828;2023-05-19T03:24:20;100600;;;20;46
33432;BME280;35187;31.882;34.828;2023-05-19T03:26:56;100590;;;20;46
33432;BME280;35187;31.882;34.828;2023-05-19T03:29:27;100590;;;20;46
33432;BME280;35187;31.882;34.828;2023-05-19T03:32:03;100600;;;20;46
33432;BME280;35187;31.882;34.828;2023-05-19T03:34:33;100590;;;20;46
33432;BME280;35187;31.882;34.828;2023-05-19T03:37:11;100600;;;20;46
33432;BME280;35187;31.882;34.828;2023-05-19T03:39:44;100600;;;20;46
33432;BME280;35187;31.882;34.828;2023-05-19T03:42:19;100610;;;20;46
33432;BME280;35187;31.882;34.828;2023-05-19T03:44:55;100610;;;20;46
33432;BME280;35187;31.882;34.828;2023-05-19T03:47:55;100620;;;20;46
33432;BME280;35187;31.882;34.828;2023-05-19T03:50:24;100610;;;20;46
33432;BME280;35187;31.882;34.828;2023-05-19T03:53:02;100620;;;20;46
33432;BME280;35187;31.882;34.828;2023-05-19T03:55:32;100620;;;20;46
33432;BME280;35187;31.882;34.828;2023-05-19T03:58:01;100620;;;20;47
33432;BME280;35187;31.882;34.828;2023-05-19T04:00:33;100620;;;20;47
33432;BME280;35187;31.882;34.828;2023-05-19T04:03:09;100620;;;20;47
33432;BME280;35187;31.882;34.828;2023-05-19T04:05:44;100630;;;20;47
33432;BME280;35187;31.882;34.828;2023-05-19T04:08:17;100630;;;20;47
33432;BME280;35187;31.882;34.828;2023-05-19T04:10:46;100630;;;20;47
33432;BME280;35187;31.882;34.828;2023-05-19T04:13:25;100640;;;20;47
33432;BME280;35187;31.882;34.828;2023-05-19T04:16:09;100640;;;20;47
33432;BME280;35187;31.882;34.828;2023-05-19T04:18:39;100640;;;20;47
33432;BME280;35187;31.882;34.828;2023-05-19T04:21:15;100640;;;20;47
33432;BME280;35187;31.882;34.828;2023-05-19T04:24:17;100640;;;20;47
33432;BME280;35187;31.882;34.828;2023-05-19T04:26:54;100640;;;20;48
33432;BME280;35187;31.882;34.828;2023-05-19T04:29:36;100640;;;20;48
33432;BME280;35187;31.882;34.828;2023-05-19T04:32:06;100640;;;20;48
33432;BME280;35187;31.882;34.828;2023-05-19T04:34:49;100650;;;20;48
33432;BME280;35187;31.882;34.828;2023-05-19T04:37:24;100650;;;20;48
33432;BME280;35187;31.882;34.828;2023-05-19T04:39:59;100650;;;20;49
33432;BME280;35187;31.882;34.828;2023-05-19T04:42:32;100650;;;21;49
33432;BME280;35187;31.882;34.828;2023-05-19T04:45:13;100650;;;20;49
33432;BME280;35187;31.882;34.828;2023-05-19T04:48:08;100660;;;20;49
33432;BME280;35187;31.882;34.828;2023-05-19T04:50:41;100660;;;21;49
33432;BME280;35187;31.882;34.828;2023-05-19T04:53:21;100650;;;21;49
33432;BME280;35187;31.882;34.828;2023-05-19T04:55:51;100660;;;21;49
33432;BME280;35187;31.882;34.828;2023-05-19T04:58:30;100660;;;20;49
33432;BME280;35187;31.882;34.828;2023-05-19T05:01:00;100660;;;20;49
33432;BME280;35187;31.882;34.828;2023-05-19T05:03:36;100660;;;21;49
33432;BME280;35187;31.882;34.828;2023-05-19T05:06:05;100660;;;21;49
33432;BME280;35187;31.882;34.828;2023-05-19T05:08:35;100660;;;21;49
33432;BME280;35187;31.882;34.828;2023-05-19T05:11:14;100660;;;21;49
33432;BME280;35187;31.882;34.828;2023-05-19T05:13:54;100660;;;21;48
33432;BME280;35187;31.882;34.828;2023-05-19T05:16:32;100660;;;21;48
33432;BME280;35187;31.882;34.828;2023-05-19T05:19:10;100660;;;21;48
33432;BME280;35187;31.882;34.828;2023-05-19T05:21:43;100660;;;21;48
33432;BME280;35187;31.882;34.828;2023-05-19T05:24:17;100660;;;21;48
33432;BME280;35187;31.882;34.828;2023-05-19T05:26:55;100660;;;21;47
33432;BME280;35187;31.882;34.828;2023-05-19T05:29:25;100670;;;21;47
33432;BME280;35187;31.882;34.828;2023-05-19T05:31:54;100670;;;21;47
33432;BME280;35187;31.882;34.828;2023-05-19T05:34:27;100670;;;21;47
33432;BME280;35187;31.882;34.828;2023-05-19T05:36:59;100670;;;21;47
33432;BME280;35187;31.882;34.828;2023-05-19T05:39:28;100670;;;21;47
33432;BME280;35187;31.882;34.828;2023-05-19T05:41:57;100670;;;21;47
33432;BME280;35187;31.882;34.828;2023-05-19T05:44:27;100670;;;21;48
33432;BME280;35187;31.882;34.828;2023-05-19T05:47:01;100670;;;21;47
33432;BME280;35187;31.882;34.828;2023-05-19T05:49:31;100670;;;21;47
33432;BME280;35187;31.882;34.828;2023-05-19T05:52:02;100670;;;21;48
33432;BME280;35187;31.882;34.828;2023-05-19T05:54:34;100660;;;21;47
33432;BME280;35187;31.882;34.828;2023-05-19T05:57:04;100660;;;21;48
33432;BME280;35187;31.882;34.828;2023-05-19T05:59:35;100660;;;21;48
33432;BME280;35187;31.882;34.828;2023-05-19T06:02:06;100660;;;21;48
33432;BME280;35187;31.882;34.828;2023-05-19T06:04:37;100660;;;21;47
33432;BME280;35187;31.882;34.828;2023-05-19T06:07:06;100670;;;21;47
33432;BME280;35187;31.882;34.828;2023-05-19T06:09:47;100670;;;21;47
33432;BME280;35187;31.882;34.828;2023-05-19T06:12:23;100670;;;22;47
33432;BME280;35187;31.882;34.828;2023-05-19T06:14:52;100670;;;22;47
33432;BME280;35187;31.882;34.828;2023-05-19T06:17:32;100670;;;22;47
33432;BME280;35187;31.882;34.828;2023-05-19T06:20:20;100670;;;21;47
33432;BME280;35187;31.882;34.828;2023-05-19T06:22:51;100670;;;21;47
33432;BME280;35187;31.882;34.828;2023-05-19T06:25:21;100670;;;21;47
33432;BME280;35187;31.882;34.828;2023-05-19T06:27:51;100670;;;21;47
33432;BME280;35187;31.882;34.828;2023-05-19T06:30:20;100660;;;21;47
33432;BME280;35187;31.882;34.828;2023-05-19T06:32:49;100660;;;21;47
33432;BME280;35187;31.882;34.828;2023-05-19T06:35:19;100660;;;21;47
33432;BME280;35187;31.882;34.828;2023-05-19T06:37:48;100660;;;22;47
33432;BME280;35187;31.882;34.828;2023-05-19T06:40:28;100660;;;22;47
33432;BME280;35187;31.882;34.828;2023-05-19T06:42:58;100660;;;22;47
33432;BME280;35187;31.882;34.828;2023-05-19T06:45:28;100650;;;22;47
33432;BME280;35187;31.882;34.828;2023-05-19T06:47:58;100650;;;21;46
33432;BME280;35187;31.882;34.828;2023-05-19T06:50:30;100650;;;22;46
33432;BME280;35187;31.882;34.828;2023-05-19T06:53:02;100650;;;21;46
33432;BME280;35187;31.882;34.828;2023-05-19T06:55:57;100650;;;21;46
33432;BME280;35187;31.882;34.828;2023-05-19T06:58:43;100640;;;22;46
33432;BME280;35187;31.882;34.828;2023-05-19T07:01:20;100640;;;22;45
33432;BME280;35187;31.882;34.828;2023-05-19T07:03:50;100640;;;22;45
33432;BME280;35187;31.882;34.828;2023-05-19T07:06:30;100640;;;22;44
33432;BME280;35187;31.882;34.828;2023-05-19T07:08:59;100640;;;22;45
33432;BME280;35187;31.882;34.828;2023-05-19T07:11:33;100640;;;21;45
33432;BME280;35187;31.882;34.828;2023-05-19T07:14:14;100640;;;22;45
33432;BME280;35187;31.882;34.828;2023-05-19T07:16:46;100640;;;22;45
33432;BME280;35187;31.882;34.828;2023-05-19T07:19:24;100650;;;22;45
33432;BME280;35187;31.882;34.828;2023-05-19T07:21:54;100650;;;22;45
33432;BME280;35187;31.882;34.828;2023-05-19T07:24:28;100640;;;22;45
33432;BME280;35187;31.882;34.828;2023-05-19T07:26:58;100640;;;22;45
33432;BME280;35187;31.882;34.828;2023-05-19T07:29:28;100640;;;22;45
33432;BME280;35187;31.882;34.828;2023-05-19T07:32:04;100640;;;22;44
33432;BME280;35187;31.882;34.828;2023-05-19T07:34:34;100640;;;22;44
33432;BME280;35187;31.882;34.828;2023-05-19T07:37:05;100640;;;22;44
33432;BME280;35187;31.882;34.828;2023-05-19T07:39:35;100640;;;22;43
33432;BME280;35187;31.882;34.828;2023-05-19T07:42:12;100640;;;22;43
33432;BME280;35187;31.882;34.828;2023-05-19T07:44:43;100640;;;22;43
33432;BME280;35187;31.882;34.828;2023-05-19T07:47:31;100640;;;22;44
33432;BME280;35187;31.882;34.828;2023-05-19T07:50:11;100640;;;22;44
33432;BME280;35187;31.882;34.828;2023-05-19T07:52:45;100640;;;22;43
33432;BME280;35187;31.882;34.828;2023-05-19T07:55:28;100630;;;22;43
33432;BME280;35187;31.882;34.828;2023-05-19T07:58:00;100630;;;22;44
33432;BME280;35187;31.882;34.828;2023-05-19T08:00:38;100630;;;22;44
33432;BME280;35187;31.882;34.828;2023-05-19T08:03:17;100630;;;23;44
33432;BME280;35187;31.882;34.828;2023-05-19T08:05:46;100630;;;22;44
33432;BME280;35187;31.882;34.828;2023-05-19T08:08:17;100620;;;22;44
33432;BME280;35187;31.882;34.828;2023-05-19T08:10:47;100620;;;23;44
33432;BME280;35187;31.882;34.828;2023-05-19T08:22:28;100620;;;23;44
33432;BME280;35187;31.882;34.828;2023-05-19T08:24:57;100610;;;22;44
33432;BME280;35187;31.882;34.828;2023-05-19T08:27:27;100620;;;22;43
33432;BME280;35187;31.882;34.828;2023-05-19T08:29:58;100620;;;23;43
33432;BME280;35187;31.882;34.828;2023-05-19T08:32:29;100610;;;23;43
33432;BME280;35187;31.882;34.828;2023-05-19T08:34:58;100610;;;22;43
33432;BME280;35187;31.882;34.828;2023-05-19T08:37:28;100610;;;22;43
33432;BME280;35187;31.882;34.828;2023-05-19T08:39:57;100600;;;22;43
33432;BME280;35187;31.882;34.828;2023-05-19T08:42:26;100600;;;23;43
33432;BME280;35187;31.882;34.828;2023-05-19T08:44:56;100600;;;23;43
33432;BME280;35187;31.882;34.828;2023-05-19T08:47:26;100600;;;23;44
33432;BME280;35187;31.882;34.828;2023-05-19T08:50:05;100600;;;22;44
33432;BME280;35187;31.882;34.828;2023-05-19T08:52:44;100600;;;23;44
33432;BME280;35187;31.882;34.828;2023-05-19T08:55:23;100600;;;22;44
33432;BME280;35187;31.882;34.828;2023-05-19T08:57:55;100590;;;22;44
33432;BME280;35187;31.882;34.828;2023-05-19T09:00:28;100600;;;22;44
33432;BME280;35187;31.882;34.828;2023-05-19T09:02:59;100600;;;22;44
33432;BME280;35187;31.882;34.828;2023-05-19T09:05:28;100580;;;22;44
33432;BME280;35187;31.882;34.828;2023-05-19T09:07:58;100580;;;22;44
33432;BME280;35187;31.882;34.828;2023-05-19T09:10:27;100580;;;23;44
33432;BME280;35187;31.882;34.828;2023-05-19T09:12:56;100580;;;23;44
33432;BME280;35187;31.882;34.828;2023-05-19T09:15:27;100580;;;22;44
33432;BME280;35187;31.882;34.828;2023-05-19T09:18:06;100580;;;23;44
33432;BME280;35187;31.882;34.828;2023-05-19T09:20:37;100580;;;22;44
33432;BME280;35187;31.882;34.828;2023-05-19T09:23:12;100580;;;22;44
33432;BME280;35187;31.882;34.828;2023-05-19T09:25:54;100570;;;22;44
33432;BME280;35187;31.882;34.828;2023-05-19T09:28:26;100580;;;22;44
33432;BME280;35187;31.882;34.828;2023-05-19T09:31:00;100570;;;23;43
33432;BME280;35187;31.882;34.828;2023-05-19T09:33:31;100570;;;22;43
33432;BME280;35187;31.882;34.828;2023-05-19T09:36:01;100570;;;23;44
33432;BME280;35187;31.882;34.828;2023-05-19T09:38:31;100580;;;22;44
33432;BME280;35187;31.882;34.828;2023-05-19T09:41:03;100580;;;22;44
33432;BME280;35187;31.882;34.828;2023-05-19T09:43:34;100590;;;22;44
33432;BME280;35187;31.882;34.828;2023-05-19T09:46:05;100590;;;22;44
33432;BME280;35187;31.882;34.828;2023-05-19T09:48:36;100590;;;22;44
33432;BME280;35187;31.882;34.828;2023-05-19T09:51:07;100600;;;22;44
33432;BME280;35187;31.882;34.828;2023-05-19T09:53:36;100600;;;22;44
33432;BME280;35187;31.882;34.828;2023-05-19T09:56:07;100590;;;22;44
33432;BME280;35187;31.882;34.828;2023-05-19T09:58:38;100600;;;22;44
33432;BME280;35187;31.882;34.828;2023-05-19T10:01:09;100590;;;22;44
33432;BME280;35187;31.882;34.828;2023-05-19T10:03:39;100590;;;22;44
33432;BME280;35187;31.882;34.828;2023-05-19T10:06:15;100590;;;22;44
33432;BME280;35187;31.882;34.828;2023-05-19T10:08:45;100580;;;22;44
33432;BME280;35187;31.882;34.828;2023-05-19T10:11:26;100580;;;22;44
33432;BME280;35187;31.882;34.828;2023-05-19T10:13:58;100580;;;22;43
33432;BME280;35187;31.882;34.828;2023-05-19T10:16:37;100580;;;22;43
33432;BME280;35187;31.882;34.828;2023-05-19T10:19:18;100580;;;23;43
33432;BME280;35187;31.882;34.828;2023-05-19T10:21:50;100580;;;22;43
33432;BME280;35187;31.882;34.828;2023-05-19T10:24:30;100580;;;22;43
33432;BME280;35187;31.882;34.828;2023-05-19T10:27:04;100580;;;22;44
33432;BME280;35187;31.882;34.828;2023-05-19T10:29:43;100570;;;23;43
33432;BME280;35187;31.882;34.828;2023-05-19T10:32:15;100570;;;22;44
33432;BME280;35187;31.882;34.828;2023-05-19T10:35:11;100570;;;22;43
33432;BME280;35187;31.882;34.828;2023-05-19T10:37:58;100570;;;22;43
33432;BME280;35187;31.882;34.828;2023-05-19T10:40:36;100570;;;23;43
33432;BME280;35187;31.882;34.828;2023-05-19T10:43:36;100560;;;23;43
33432;BME280;35187;31.882;34.828;2023-05-19T10:46:13;100560;;;23;43
33432;BME280;35187;31.882;34.828;2023-05-19T10:48:45;100550;;;22;43
33432;BME280;35187;31.882;34.828;2023-05-19T10:51:20;100560;;;22;43
33432;BME280;35187;31.882;34.828;2023-05-19T10:54:08;100550;;;22;43
33432;BME280;35187;31.882;34.828;2023-05-19T10:56:39;100540;;;22;43
33432;BME280;35187;31.882;34.828;2023-05-19T10:59:35;100540;;;22;43
33432;BME280;35187;31.882;34.828;2023-05-19T11:02:06;100540;;;22;43
33432;BME280;35187;31.882;34.828;2023-05-19T11:04:44;100540;;;22;43
33432;BME280;35187;31.882;34.828;2023-05-19T11:07:24;100530;;;22;43
33432;BME280;35187;31.882;34.828;2023-05-19T11:09:54;100530;;;23;43
33432;BME280;35187;31.882;34.828;2023-05-19T11:12:24;100530;;;22;43
33432;BME280;35187;31.882;34.828;2023-05-19T11:14:59;100530;;;23;43
33432;BME280;35187;31.882;34.828;2023-05-19T11:17:39;100520;;;22;43
33432;BME280;35187;31.882;34.828;2023-05-19T11:20:23;100520;;;23;43
33432;BME280;35187;31.882;34.828;2023-05-19T11:23:04;100520;;;22;43
33432;BME280;35187;31.882;34.828;2023-05-19T11:25:43;100520;;;22;43
33432;BME280;35187;31.882;34.828;2023-05-19T11:28:17;100520;;;22;43
33432;BME280;35187;31.882;34.828;2023-05-19T11:30:48;100520;;;22;43
33432;BME280;35187;31.882;34.828;2023-05-19T11:33:19;100520;;;22;43
33432;BME280;35187;31.882;34.828;2023-05-19T11:35:53;100510;;;23;43
33432;BME280;35187;31.882;34.828;2023-05-19T11:38:22;100510;;;23;43
33432;BME280;35187;31.882;34.828;2023-05-19T11:40:55;100520;;;23;43
33432;BME280;35187;31.882;34.828;2023-05-19T11:43:25;100520;;;22;43
33432;BME280;35187;31.882;34.828;2023-05-19T11:45:57;100510;;;22;43
33432;BME280;35187;31.882;34.828;2023-05-19T11:48:25;100510;;;23;43
33432;BME280;35187;31.882;34.828;2023-05-19T11:50:54;100520;;;22;43
33432;BME280;35187;31.882;34.828;2023-05-19T11:53:24;100510;;;22;43
33432;BME280;35187;31.882;34.828;2023-05-19T11:55:56;100510;;;22;43
33432;BME280;35187;31.882;34.828;2023-05-19T11:58:43;100500;;;23;43
33432;BME280;35187;31.882;34.828;2023-05-19T12:01:14;100510;;;22;43
33432;BME280;35187;31.882;34.828;2023-05-19T12:03:49;100510;;;22;43
33432;BME280;35187;31.882;34.828;2023-05-19T12:06:19;100510;;;23;43
33432;BME280;35187;31.882;34.828;2023-05-19T12:08:51;100510;;;22;43
33432;BME280;35187;31.882;34.828;2023-05-19T12:11:24;100500;;;22;43
33432;BME280;35187;31.882;34.828;2023-05-19T12:14:00;100500;;;23;43
33432;BME280;35187;31.882;34.828;2023-05-19T12:16:34;100500;;;23;43
33432;BME280;35187;31.882;34.828;2023-05-19T12:19:06;100500;;;22;43
33432;BME280;35187;31.882;34.828;2023-05-19T12:21:36;100500;;;22;42
33432;BME280;35187;31.882;34.828;2023-05-19T12:24:07;100490;;;22;42
33432;BME280;35187;31.882;34.828;2023-05-19T12:26:39;100490;;;23;43
33432;BME280;35187;31.882;34.828;2023-05-19T12:29:08;100490;;;22;43
33432;BME280;35187;31.882;34.828;2023-05-19T12:31:39;100500;;;23;43
33432;BME280;35187;31.882;34.828;2023-05-19T12:34:11;100500;;;22;43
33432;BME280;35187;31.882;34.828;2023-05-19T12:36:42;100500;;;22;43
33432;BME280;35187;31.882;34.828;2023-05-19T12:39:15;100500;;;23;43
33432;BME280;35187;31.882;34.828;2023-05-19T12:41:48;100500;;;22;43
33432;BME280;35187;31.882;34.828;2023-05-19T12:44:17;100500;;;23;43
33432;BME280;35187;31.882;34.828;2023-05-19T12:46:51;100500;;;22;43
33432;BME280;35187;31.882;34.828;2023-05-19T12:49:21;100500;;;23;43
33432;BME280;35187;31.882;34.828;2023-05-19T12:51:51;100500;;;22;43
33432;BME280;35187;31.882;34.828;2023-05-19T12:54:21;100500;;;22;43
33432;BME280;35187;31.882;34.828;2023-05-19T12:56:50;100490;;;22;43
33432;BME280;35187;31.882;34.828;2023-05-19T12:59:22;100500;;;22;43
33432;BME280;35187;31.882;34.828;2023-05-19T13:02:01;100490;;;22;43
33432;BME280;35187;31.882;34.828;2023-05-19T13:04:31;100490;;;22;43
33432;BME280;35187;31.882;34.828;2023-05-19T13:07:00;100500;;;23;43
33432;BME280;35187;31.882;34.828;2023-05-19T13:09:29;100480;;;23;43
33432;BME280;35187;31.882;34.828;2023-05-19T13:11:58;100490;;;22;43
33432;BME280;35187;31.882;34.828;2023-05-19T13:14:28;100490;;;22;43
33432;BME280;35187;31.882;34.828;2023-05-19T13:16:58;100490;;;22;43
33432;BME280;35187;31.882;34.828;2023-05-19T13:19:27;100480;;;23;43
33432;BME280;35187;31.882;34.828;2023-05-19T13:21:56;100480;;;22;43
33432;BME280;35187;31.882;34.828;2023-05-19T13:24:25;100480;;;22;43
33432;BME280;35187;31.882;34.828;2023-05-19T13:26:55;100480;;;23;43
33432;BME280;35187;31.882;34.828;2023-05-19T13:29:24;100480;;;22;43
33432;BME280;35187;31.882;34.828;2023-05-19T13:31:55;100480;;;22;43
33432;BME280;35187;31.882;34.828;2023-05-19T13:34:25;100480;;;22;43
33432;BME280;35187;31.882;34.828;2023-05-19T13:36:56;100470;;;23;43
33432;BME280;35187;31.882;34.828;2023-05-19T13:39:25;100480;;;22;43
33432;BME280;35187;31.882;34.828;2023-05-19T13:41:57;100480;;;22;43
33432;BME280;35187;31.882;34.828;2023-05-19T13:44:27;100480;;;23;43
33432;BME280;35187;31.882;34.828;2023-05-19T13:46:58;100480;;;22;43
33432;BME280;35187;31.882;34.828;2023-05-19T13:49:28;100480;;;22;43
33432;BME280;35187;31.882;34.828;2023-05-19T13:51:57;100480;;;22;44
33432;BME280;35187;31.882;34.828;2023-05-19T13:54:27;100480;;;22;44
33432;BME280;35187;31.882;34.828;2023-05-19T13:56:56;100480;;;22;44
33432;BME280;35187;31.882;34.828;2023-05-19T13:59:25;100480;;;22;43
33432;BME280;35187;31.882;34.828;2023-05-19T14:02:03;100490;;;22;43
33432;BME280;35187;31.882;34.828;2023-05-19T14:04:34;100500;;;22;43
33432;BME280;35187;31.882;34.828;2023-05-19T14:07:04;100500;;;22;43
33432;BME280;35187;31.882;34.828;2023-05-19T14:09:33;100500;;;22;43
33432;BME280;35187;31.882;34.828;2023-05-19T14:12:03;100500;;;23;43
33432;BME280;35187;31.882;34.828;2023-05-19T14:14:32;100510;;;22;43
33432;BME280;35187;31.882;34.828;2023-05-19T14:17:02;100500;;;23;43
33432;BME280;35187;31.882;34.828;2023-05-19T14:19:30;100500;;;23;43
33432;BME280;35187;31.882;34.828;2023-05-19T14:21:59;100500;;;22;43
33432;BME280;35187;31.882;34.828;2023-05-19T14:24:29;100490;;;22;43
33432;BME280;35187;31.882;34.828;2023-05-19T14:26:58;100500;;;23;43
33432;BME280;35187;31.882;34.828;2023-05-19T14:29:27;100500;;;22;43
33432;BME280;35187;31.882;34.828;2023-05-19T14:32:05;100500;;;22;42
33432;BME280;35187;31.882;34.828;2023-05-19T14:34:34;100500;;;22;42
33432;BME280;35187;31.882;34.828;2023-05-19T14:37:04;100500;;;23;42
33432;BME280;35187;31.882;34.828;2023-05-19T14:39:37;100500;;;23;41
33432;BME280;35187;31.882;34.828;2023-05-19T14:42:06;100500;;;22;41
33432;BME280;35187;31.882;34.828;2023-05-19T14:44:35;100500;;;22;42
33432;BME280;35187;31.882;34.828;2023-05-19T14:47:06;100500;;;23;41
33432;BME280;35187;31.882;34.828;2023-05-19T14:49:37;100500;;;23;41
33432;BME280;35187;31.882;34.828;2023-05-19T14:52:07;100500;;;22;42
33432;BME280;35187;31.882;34.828;2023-05-19T14:54:44;100500;;;22;42
33432;BME280;35187;31.882;34.828;2023-05-19T14:57:14;100500;;;23;42
33432;BME280;35187;31.882;34.828;2023-05-19T14:59:50;100490;;;22;42
33432;BME280;35187;31.882;34.828;2023-05-19T15:02:30;100490;;;22;41
33432;BME280;35187;31.882;34.828;2023-05-19T15:05:00;100510;;;22;41
33432;BME280;35187;31.882;34.828;2023-05-19T15:07:30;100510;;;22;41
33432;BME280;35187;31.882;34.828;2023-05-19T15:09:59;100510;;;23;41
33432;BME280;35187;31.882;34.828;2023-05-19T15:12:30;100500;;;22;41